MON weather

Mount Cook Airport
Canterbury Region, New Zealand

Public forecast

Using degrees Celsius for public forecast. Weather courtesy of forecast.io.

Closest aviation weather report (METAR) to Mount Cook Airport

Closest report is Christchurch International Airport, 105.6 nm (195.5 km) E. Retrieved 2020/06/04 03:00 UTC (30 minutes ago):

NZCH 040300Z AUTO 22015KT 190V260 8000 BKN009/// BKN030/// 10/09 Q1004 TEMPO 4000 RA

Closest aviation forecast (TAF) to Mount Cook Airport

Forecast is more than 12 hours old.

Closest forecast is Queenstown International Airport, 96.2 nm (178.3 km) SW. Retrieved 2020/06/03 12:41 UTC (15 hours ago):

TAF NZQN 031127Z 0312/0406 18008KT 9999 -RA BKN020 OVC040 TEMPO 0312/0400 5000 RA BECMG 0320/0322 18020G30KT BECMG 0402/0404 18015KT